createdAt,value
2019-02-07T00:01:05.506Z,1.10
2019-02-07T00:03:33.993Z,1.10
2019-02-07T00:06:02.798Z,1.00
2019-02-07T00:08:31.288Z,1.00
2019-02-07T00:10:59.778Z,1.10
2019-02-07T00:13:28.310Z,1.00
2019-02-07T00:15:58.396Z,1.00
2019-02-07T00:18:26.784Z,0.80
2019-02-07T00:20:55.180Z,0.80
2019-02-07T00:23:23.537Z,0.70
2019-02-07T00:25:52.017Z,0.40
2019-02-07T00:28:20.565Z,0.50
2019-02-07T00:30:48.945Z,0.80
2019-02-07T00:33:17.409Z,0.90
2019-02-07T00:35:45.906Z,0.80
2019-02-07T00:38:14.620Z,0.80
2019-02-07T00:40:42.994Z,0.90
2019-02-07T00:43:11.461Z,0.70
2019-02-07T00:45:39.961Z,0.70
2019-02-07T00:48:08.440Z,0.60
2019-02-07T00:50:36.924Z,0.60
2019-02-07T00:53:05.810Z,0.70
2019-02-07T00:55:35.979Z,0.50
2019-02-07T00:58:04.526Z,0.60
2019-02-07T01:00:33.118Z,0.70
2019-02-07T01:03:01.692Z,0.70
2019-02-07T01:05:30.170Z,0.70
2019-02-07T01:07:59.054Z,0.70
2019-02-07T01:10:28.648Z,0.80
2019-02-07T01:12:57.208Z,0.80
2019-02-07T01:15:26.733Z,0.80
2019-02-07T01:17:55.996Z,0.70
2019-02-07T01:20:24.492Z,0.60
2019-02-07T01:22:53.566Z,0.60
2019-02-07T01:25:22.082Z,0.60
2019-02-07T01:27:51.268Z,0.50
2019-02-07T01:30:21.784Z,0.50
2019-02-07T01:32:50.259Z,0.60
2019-02-07T01:35:18.634Z,0.60
2019-02-07T01:37:47.120Z,0.50
2019-02-07T01:40:16.921Z,0.50
2019-02-07T01:42:45.278Z,0.60
2019-02-07T01:45:17.641Z,0.60
2019-02-07T01:47:48.145Z,0.60
2019-02-07T01:50:19.405Z,0.60
2019-02-07T01:52:48.520Z,0.60
2019-02-07T01:55:17.195Z,0.50
2019-02-07T01:57:47.433Z,0.40
2019-02-07T02:00:23.488Z,0.50
2019-02-07T02:02:53.662Z,0.30
2019-02-07T02:05:22.941Z,0.40
2019-02-07T02:07:51.821Z,0.50
2019-02-07T02:10:22.949Z,0.40
2019-02-07T02:12:52.227Z,0.20
2019-02-07T02:15:24.980Z,0.20
2019-02-07T02:17:52.553Z,0.40
2019-02-07T02:20:22.494Z,0.50
2019-02-07T02:22:52.412Z,0.60
2019-02-07T02:25:21.194Z,0.60
2019-02-07T02:27:49.682Z,0.50
2019-02-07T02:30:24.916Z,0.50
2019-02-07T02:32:53.295Z,0.60
2019-02-07T02:35:22.060Z,0.70
2019-02-07T02:37:50.574Z,0.50
2019-02-07T02:40:19.152Z,0.40
2019-02-07T02:42:47.633Z,0.30
2019-02-07T02:45:17.127Z,0.20
2019-02-07T02:47:45.630Z,0.30
2019-02-07T02:50:16.133Z,0.10
2019-02-07T02:52:46.127Z,0.20
2019-02-07T02:55:40.304Z,0.30
2019-02-07T02:58:08.834Z,0.30
2019-02-07T03:00:55.932Z,0.20
2019-02-07T03:03:33.286Z,0.20
2019-02-07T03:06:26.991Z,0.30
2019-02-07T03:09:15.066Z,0.20
2019-02-07T03:12:09.228Z,0.10
2019-02-07T03:15:06.040Z,0.10
2019-02-07T03:17:52.772Z,-0.10
2019-02-07T03:20:43.920Z,0.00
2019-02-07T03:23:25.130Z,-0.10
2019-02-07T03:26:12.238Z,-0.10
2019-02-07T03:29:12.893Z,0.00
2019-02-07T03:31:59.691Z,0.00
2019-02-07T03:34:46.252Z,0.10
2019-02-07T03:37:33.510Z,0.10
2019-02-07T03:40:28.672Z,0.10
2019-02-07T03:43:21.887Z,0.00
2019-02-07T03:46:09.840Z,0.10
2019-02-07T03:48:52.848Z,0.00
2019-02-07T03:51:52.993Z,-0.20
2019-02-07T03:54:37.524Z,-0.20
2019-02-07T03:57:34.678Z,-0.20
2019-02-07T04:00:43.208Z,-0.30
2019-02-07T04:03:34.036Z,-0.20
2019-02-07T04:06:22.378Z,-0.40
2019-02-07T04:09:13.497Z,-0.40
2019-02-07T04:11:56.694Z,-0.40
2019-02-07T04:14:45.317Z,-0.50
2019-02-07T04:17:41.096Z,-0.40
2019-02-07T04:20:23.902Z,-0.20
2019-02-07T04:23:04.341Z,-0.20
2019-02-07T04:26:10.748Z,-0.20
2019-02-07T04:29:01.872Z,-0.30
2019-02-07T04:31:57.978Z,-0.40
2019-02-07T04:34:52.129Z,-0.40
2019-02-07T04:37:42.964Z,-0.50
2019-02-07T04:40:29.520Z,-0.50
2019-02-07T04:43:26.812Z,-0.40
2019-02-07T04:46:07.996Z,-0.60
2019-02-07T04:49:01.565Z,-0.50
2019-02-07T04:51:45.822Z,-0.30
2019-02-07T04:54:34.279Z,-0.30
2019-02-07T04:57:20.000Z,-0.60
2019-02-07T05:00:11.278Z,-0.70
2019-02-07T05:02:58.189Z,-0.70
2019-02-07T05:05:53.060Z,-0.70
2019-02-07T05:08:41.189Z,-0.70
2019-02-07T05:11:40.134Z,-0.60
2019-02-07T05:14:41.392Z,-0.60
2019-02-07T05:17:24.289Z,-0.50
2019-02-07T05:20:11.323Z,-0.60
2019-02-07T05:22:58.368Z,-0.80
2019-02-07T05:25:45.195Z,-1.00
2019-02-07T05:28:39.472Z,-0.90
2019-02-07T05:31:27.663Z,-0.90
2019-02-07T05:34:10.900Z,-0.70
2019-02-07T05:36:57.596Z,-0.70
2019-02-07T05:39:57.891Z,-0.80
2019-02-07T05:42:53.755Z,-0.90
2019-02-07T05:45:40.736Z,-0.90
2019-02-07T05:48:32.559Z,-0.80
2019-02-07T05:51:17.850Z,-0.70
2019-02-07T05:54:17.979Z,-0.90
2019-02-07T05:57:05.417Z,-0.80
2019-02-07T05:59:59.409Z,-0.80
2019-02-07T06:02:42.009Z,-0.90
2019-02-07T06:05:48.150Z,-0.80
2019-02-07T06:08:54.476Z,-0.80
2019-02-07T06:11:37.442Z,-0.90
2019-02-07T06:14:28.400Z,-1.00
2019-02-07T06:17:15.461Z,-1.10
2019-02-07T06:20:03.437Z,-1.00
2019-02-07T06:22:39.044Z,-1.00
2019-02-07T06:25:35.363Z,-0.90
2019-02-07T06:28:26.291Z,-0.90
2019-02-07T06:31:10.761Z,-0.90
2019-02-07T06:33:57.289Z,-0.80
2019-02-07T06:36:45.665Z,-0.80
2019-02-07T06:39:36.997Z,-0.70
2019-02-07T06:42:17.512Z,-0.70
2019-02-07T06:45:14.609Z,-0.70
2019-02-07T06:48:12.417Z,-0.70
2019-02-07T06:50:51.630Z,-0.50
2019-02-07T06:53:38.267Z,-0.50
2019-02-07T06:56:25.116Z,-0.40
2019-02-07T06:59:12.322Z,-0.50
2019-02-07T07:01:53.354Z,-0.40
2019-02-07T07:04:41.327Z,-0.30
2019-02-07T07:07:28.103Z,-0.30
2019-02-07T07:10:16.082Z,-0.20
2019-02-07T07:13:13.340Z,-0.30
2019-02-07T07:16:00.190Z,-0.30
2019-02-07T07:18:51.262Z,-0.40
2019-02-07T07:21:49.599Z,-0.40
2019-02-07T07:24:38.173Z,-0.30
2019-02-07T07:27:29.239Z,-0.40
2019-02-07T07:30:15.949Z,-0.30
2019-02-07T07:33:14.154Z,-0.50
2019-02-07T07:35:53.529Z,-0.50
2019-02-07T07:38:30.468Z,-0.30
2019-02-07T07:41:19.209Z,-0.30
2019-02-07T07:44:05.936Z,-0.20
2019-02-07T07:47:09.303Z,0.00
2019-02-07T07:50:15.651Z,0.10
2019-02-07T07:53:16.156Z,0.10
2019-02-07T07:56:04.254Z,0.10
2019-02-07T07:58:52.246Z,0.00
2019-02-07T08:01:45.999Z,0.20
2019-02-07T08:04:37.102Z,-0.10
2019-02-07T08:07:25.374Z,0.10
2019-02-07T08:10:12.367Z,0.20
2019-02-07T08:12:55.785Z,0.30
2019-02-07T08:15:40.324Z,0.50
2019-02-07T08:18:27.625Z,0.40
2019-02-07T08:21:21.755Z,0.40
2019-02-07T08:24:15.658Z,0.30
2019-02-07T08:27:02.766Z,0.40
2019-02-07T08:29:57.817Z,0.60
2019-02-07T08:32:48.636Z,0.60
2019-02-07T08:35:38.016Z,0.70
2019-02-07T08:38:21.953Z,0.60
2019-02-07T08:41:11.382Z,0.60
2019-02-07T08:43:55.378Z,0.80
2019-02-07T08:46:45.375Z,1.00
2019-02-07T08:49:24.611Z,0.90
2019-02-07T08:52:18.716Z,1.10
2019-02-07T08:55:22.100Z,1.10
2019-02-07T08:58:01.229Z,1.20
2019-02-07T09:00:50.879Z,1.30
2019-02-07T09:03:39.431Z,1.20
2019-02-07T09:06:36.031Z,1.40
2019-02-07T09:09:34.379Z,1.30
2019-02-07T09:12:34.772Z,1.30
2019-02-07T09:15:24.091Z,1.40
2019-02-07T09:18:15.679Z,1.60
2019-02-07T09:21:09.509Z,1.50
2019-02-07T09:24:01.590Z,1.50
2019-02-07T09:26:44.938Z,1.60
2019-02-07T09:29:32.305Z,1.70
2019-02-07T09:32:23.716Z,1.90
2019-02-07T09:35:18.011Z,1.80
2019-02-07T09:38:16.597Z,2.00
2019-02-07T09:41:10.342Z,1.90
2019-02-07T09:43:57.365Z,1.90
2019-02-07T09:46:57.948Z,1.90
2019-02-07T09:49:48.495Z,1.80
2019-02-07T09:52:39.275Z,1.90
2019-02-07T09:55:37.806Z,2.30
2019-02-07T09:58:35.971Z,2.00
2019-02-07T10:01:17.863Z,2.00
2019-02-07T10:04:18.261Z,2.20
2019-02-07T10:07:08.668Z,2.20
2019-02-07T10:10:04.622Z,2.20
2019-02-07T10:12:51.417Z,2.30
2019-02-07T10:15:42.552Z,2.40
2019-02-07T10:18:33.059Z,2.40
2019-02-07T10:21:17.443Z,2.50
2019-02-07T10:24:11.637Z,2.60
2019-02-07T10:26:58.226Z,2.60
2019-02-07T10:29:44.806Z,2.80
2019-02-07T10:32:48.173Z,2.90
2019-02-07T10:35:38.976Z,3.10
2019-02-07T10:38:32.702Z,3.40
2019-02-07T10:41:12.336Z,3.40
2019-02-07T10:44:00.443Z,3.60
2019-02-07T10:46:51.541Z,3.80
2019-02-07T10:49:43.653Z,4.10
2019-02-07T10:52:36.456Z,4.70
2019-02-07T10:55:24.325Z,5.40
2019-02-07T10:58:13.021Z,6.10
2019-02-07T11:01:01.048Z,6.70
2019-02-07T11:03:58.323Z,6.90
2019-02-07T11:06:45.880Z,6.70
2019-02-07T11:09:38.819Z,6.40
2019-02-07T11:12:38.777Z,6.40
2019-02-07T11:15:29.656Z,6.40
2019-02-07T11:18:20.201Z,6.60
2019-02-07T11:21:00.769Z,6.80
2019-02-07T11:24:07.558Z,7.20
2019-02-07T11:26:54.075Z,7.40
2019-02-07T11:29:40.022Z,7.80
2019-02-07T11:32:26.760Z,7.70
2019-02-07T11:35:13.810Z,8.00
2019-02-07T11:38:01.303Z,8.30
2019-02-07T11:41:01.565Z,8.50
2019-02-07T11:43:48.432Z,8.50
2019-02-07T11:46:37.611Z,8.70
2019-02-07T11:49:28.544Z,8.60
2019-02-07T11:52:07.238Z,8.50
2019-02-07T11:54:53.063Z,8.70
2019-02-07T11:57:47.539Z,9.00
2019-02-07T12:00:53.276Z,9.10
2019-02-07T12:03:37.903Z,9.10
2019-02-07T12:06:28.769Z,9.10
2019-02-07T12:09:32.011Z,9.10
2019-02-07T12:12:13.513Z,9.20
2019-02-07T12:14:55.395Z,9.30
2019-02-07T12:17:42.741Z,9.30
2019-02-07T12:20:37.659Z,9.50
2019-02-07T12:23:42.737Z,9.60
2019-02-07T12:26:31.302Z,9.70
2019-02-07T12:29:27.979Z,9.90
2019-02-07T12:32:16.025Z,10.00
2019-02-07T12:35:11.738Z,9.90
2019-02-07T12:38:00.565Z,9.80
2019-02-07T12:40:54.058Z,9.70
2019-02-07T12:43:50.842Z,9.80
2019-02-07T12:46:40.347Z,10.10
2019-02-07T12:49:33.364Z,9.80
2019-02-07T12:52:11.121Z,9.80
2019-02-07T12:54:53.252Z,9.90
2019-02-07T12:57:47.131Z,9.90
2019-02-07T13:00:36.180Z,10.00
2019-02-07T13:03:26.231Z,9.80
2019-02-07T13:06:12.070Z,10.00
2019-02-07T13:09:00.944Z,10.10
2019-02-07T13:12:01.013Z,9.80
2019-02-07T13:14:38.076Z,10.10
2019-02-07T13:17:19.225Z,10.00
2019-02-07T13:19:56.439Z,10.00
2019-02-07T13:22:53.771Z,9.80
2019-02-07T13:25:32.764Z,9.90
2019-02-07T13:28:30.980Z,10.00
2019-02-07T13:31:28.094Z,10.10
2019-02-07T13:34:15.543Z,10.10
2019-02-07T13:36:57.585Z,9.90
2019-02-07T13:39:44.922Z,9.70
2019-02-07T13:42:32.995Z,9.50
2019-02-07T13:45:19.864Z,9.40
2019-02-07T13:48:07.452Z,9.20
2019-02-07T13:51:01.330Z,9.20
2019-02-07T13:53:39.882Z,9.00
2019-02-07T13:56:35.926Z,8.80
2019-02-07T13:59:31.970Z,8.50
2019-02-07T14:02:21.038Z,8.50
2019-02-07T14:05:15.394Z,8.60
2019-02-07T14:08:10.223Z,8.40
2019-02-07T14:11:16.649Z,8.30
2019-02-07T14:14:19.061Z,8.30
2019-02-07T14:17:09.711Z,8.30
2019-02-07T14:20:03.755Z,8.10
2019-02-07T14:22:52.041Z,7.90
2019-02-07T14:25:40.044Z,7.70
2019-02-07T14:28:32.585Z,7.60
2019-02-07T14:31:28.651Z,7.50
2019-02-07T14:34:19.912Z,7.40
2019-02-07T14:37:11.349Z,7.30
2019-02-07T14:39:51.579Z,7.20
2019-02-07T14:42:48.620Z,7.10
2019-02-07T14:45:37.002Z,7.10
2019-02-07T14:48:05.864Z,7.00
2019-02-07T14:50:34.465Z,7.00
2019-02-07T14:53:04.052Z,7.00
2019-02-07T14:55:33.098Z,7.00
2019-02-07T14:58:01.827Z,7.00
2019-02-07T15:00:30.228Z,7.00
2019-02-07T15:02:58.629Z,6.80
2019-02-07T15:05:27.937Z,6.80
2019-02-07T15:07:56.540Z,6.60
2019-02-07T15:10:25.905Z,6.60
2019-02-07T15:12:55.719Z,6.70
2019-02-07T15:15:24.097Z,6.80
2019-02-07T15:17:55.888Z,6.80
2019-02-07T15:20:26.443Z,6.90
2019-02-07T15:22:56.008Z,6.90
2019-02-07T15:25:26.437Z,6.70
2019-02-07T15:27:55.013Z,6.70
2019-02-07T15:30:25.162Z,6.60
2019-02-07T15:32:54.951Z,6.50
2019-02-07T15:35:31.171Z,6.50
2019-02-07T15:38:00.017Z,6.50
2019-02-07T15:40:29.196Z,6.40
2019-02-07T15:42:57.982Z,6.40
2019-02-07T15:45:26.921Z,6.30
2019-02-07T15:47:55.706Z,6.10
2019-02-07T15:50:24.473Z,6.00
2019-02-07T15:52:56.295Z,5.90
2019-02-07T15:55:25.722Z,5.80
2019-02-07T15:57:54.753Z,5.70
2019-02-07T16:00:59.425Z,5.50
2019-02-07T16:03:33.508Z,5.50
2019-02-07T16:06:06.329Z,5.40
2019-02-07T16:08:34.207Z,5.20
2019-02-07T16:11:03.101Z,5.20
2019-02-07T16:13:32.475Z,5.20
2019-02-07T16:16:01.221Z,5.00
2019-02-07T16:18:29.989Z,5.00
2019-02-07T16:20:58.607Z,5.00
2019-02-07T16:23:28.480Z,5.00
2019-02-07T16:25:57.378Z,4.80
2019-02-07T16:28:26.578Z,4.70
2019-02-07T16:30:55.259Z,4.60
2019-02-07T16:33:23.882Z,4.60
2019-02-07T16:35:53.514Z,4.60
2019-02-07T16:38:25.116Z,4.60
2019-02-07T16:40:53.918Z,4.60
2019-02-07T16:43:23.624Z,4.50
2019-02-07T16:45:54.825Z,4.50
2019-02-07T16:48:23.556Z,4.40
2019-02-07T16:50:59.897Z,4.30
2019-02-07T16:53:22.863Z,4.30
2019-02-07T16:55:51.804Z,4.10
2019-02-07T16:58:22.224Z,4.10
2019-02-07T17:00:51.659Z,4.10
2019-02-07T17:03:20.033Z,4.10
2019-02-07T17:05:48.839Z,4.10
2019-02-07T17:08:18.261Z,4.10
2019-02-07T17:10:48.870Z,4.00
2019-02-07T17:13:19.787Z,4.00
2019-02-07T17:15:48.773Z,3.80
2019-02-07T17:18:17.348Z,3.60
2019-02-07T17:20:46.304Z,3.60
2019-02-07T17:23:14.683Z,3.70
2019-02-07T17:25:43.071Z,3.70
2019-02-07T17:28:12.180Z,3.60
2019-02-07T17:30:42.404Z,3.60
2019-02-07T17:33:11.000Z,3.50
2019-02-07T17:35:40.482Z,3.50
2019-02-07T17:38:09.483Z,3.40
2019-02-07T17:40:38.863Z,3.40
2019-02-07T17:43:07.369Z,3.50
2019-02-07T17:45:35.752Z,3.50
2019-02-07T17:48:04.502Z,3.50
2019-02-07T17:50:33.606Z,3.40
2019-02-07T17:53:05.081Z,3.30
2019-02-07T17:55:33.553Z,3.40
2019-02-07T17:58:02.029Z,3.40
2019-02-07T18:00:42.987Z,3.50
2019-02-07T18:03:11.397Z,3.50
2019-02-07T18:05:40.281Z,3.50
2019-02-07T18:08:09.870Z,3.50
2019-02-07T18:10:38.667Z,3.40
2019-02-07T18:13:08.018Z,3.30
2019-02-07T18:15:36.578Z,3.40
2019-02-07T18:18:05.669Z,3.40
2019-02-07T18:20:34.137Z,3.30
2019-02-07T18:23:02.775Z,3.30
2019-02-07T18:25:31.253Z,3.30
2019-02-07T18:28:00.646Z,3.40
2019-02-07T18:30:29.279Z,3.40
2019-02-07T18:32:59.321Z,3.40
2019-02-07T18:35:27.718Z,3.30
2019-02-07T18:37:56.809Z,3.20
2019-02-07T18:40:29.656Z,3.10
2019-02-07T18:42:59.582Z,3.10
2019-02-07T18:45:29.000Z,3.10
2019-02-07T18:47:57.782Z,3.10
2019-02-07T18:50:35.375Z,3.10
2019-02-07T18:53:04.965Z,3.10
2019-02-07T18:55:35.659Z,3.00
2019-02-07T18:58:05.624Z,3.10
2019-02-07T19:00:34.713Z,3.00
2019-02-07T19:03:10.521Z,3.10
2019-02-07T19:05:39.387Z,3.20
2019-02-07T19:08:18.666Z,3.20
2019-02-07T19:10:47.590Z,3.20
2019-02-07T19:13:20.343Z,3.00
2019-02-07T19:15:55.069Z,3.00
2019-02-07T19:18:25.287Z,3.00
2019-02-07T19:20:55.886Z,3.00
2019-02-07T19:23:25.143Z,3.00
2019-02-07T19:25:53.648Z,3.00
2019-02-07T19:28:23.325Z,2.90
2019-02-07T19:30:53.091Z,2.90
2019-02-07T19:33:22.666Z,2.70
2019-02-07T19:35:55.211Z,2.80
2019-02-07T19:38:25.253Z,2.90
2019-02-07T19:40:54.050Z,2.90
2019-02-07T19:43:22.478Z,2.70
2019-02-07T19:45:50.993Z,2.60
2019-02-07T19:48:27.825Z,2.50
2019-02-07T19:50:56.713Z,2.70
2019-02-07T19:53:25.245Z,2.70
2019-02-07T19:55:54.502Z,2.60
2019-02-07T19:58:23.136Z,2.80
2019-02-07T20:00:51.689Z,2.70
2019-02-07T20:03:20.398Z,2.60
2019-02-07T20:05:49.227Z,2.50
2019-02-07T20:08:18.127Z,2.60
2019-02-07T20:10:46.859Z,2.70
2019-02-07T20:13:15.590Z,2.70
2019-02-07T20:15:44.509Z,2.80
2019-02-07T20:18:17.266Z,2.80
2019-02-07T20:20:45.949Z,2.70
2019-02-07T20:23:15.137Z,2.50
2019-02-07T20:25:44.568Z,2.50
2019-02-07T20:28:13.692Z,2.60
2019-02-07T20:30:43.097Z,2.40
2019-02-07T20:33:11.567Z,2.30
2019-02-07T20:35:40.468Z,2.30
2019-02-07T20:38:10.082Z,2.30
2019-02-07T20:40:38.873Z,2.50
2019-02-07T20:43:07.743Z,2.50
2019-02-07T20:45:36.819Z,2.60
2019-02-07T20:48:07.642Z,2.60
2019-02-07T20:50:36.755Z,2.50
2019-02-07T20:53:06.599Z,2.50
2019-02-07T20:55:39.033Z,2.50
2019-02-07T20:58:09.018Z,2.50
2019-02-07T21:00:39.963Z,2.50
2019-02-07T21:03:08.404Z,2.40
2019-02-07T21:05:37.420Z,2.50
2019-02-07T21:08:06.174Z,2.50
2019-02-07T21:10:35.558Z,2.40
2019-02-07T21:13:05.084Z,2.30
2019-02-07T21:15:34.755Z,2.40
2019-02-07T21:18:04.127Z,2.30
2019-02-07T21:20:32.696Z,2.20
2019-02-07T21:23:01.107Z,2.20
2019-02-07T21:25:41.650Z,2.30
2019-02-07T21:28:11.217Z,2.40
2019-02-07T21:30:39.827Z,2.40
2019-02-07T21:33:08.430Z,2.50
2019-02-07T21:35:37.414Z,2.50
2019-02-07T21:38:06.368Z,2.40
2019-02-07T21:40:35.104Z,2.50
2019-02-07T21:43:04.229Z,2.50
2019-02-07T21:45:34.657Z,2.40
2019-02-07T21:48:09.477Z,2.20
2019-02-07T21:50:38.145Z,2.10
2019-02-07T21:53:07.131Z,2.10
2019-02-07T21:55:35.666Z,2.00
2019-02-07T21:58:05.885Z,1.90
2019-02-07T22:00:40.304Z,1.80
2019-02-07T22:03:11.714Z,1.90
2019-02-07T22:05:40.954Z,2.10
2019-02-07T22:08:10.719Z,2.20
2019-02-07T22:10:39.236Z,2.10
2019-02-07T22:13:08.446Z,2.20
2019-02-07T22:15:38.342Z,2.20
2019-02-07T22:18:08.844Z,2.30
2019-02-07T22:20:37.235Z,2.40
2019-02-07T22:23:05.851Z,2.20
2019-02-07T22:25:34.237Z,2.30
2019-02-07T22:28:03.174Z,2.40
2019-02-07T22:30:33.627Z,2.40
2019-02-07T22:33:02.230Z,2.40
2019-02-07T22:35:31.132Z,2.50
2019-02-07T22:37:59.890Z,2.40
2019-02-07T22:40:28.449Z,2.30
2019-02-07T22:42:59.029Z,2.40
2019-02-07T22:45:27.922Z,2.40
2019-02-07T22:47:56.427Z,2.30
2019-02-07T22:50:26.714Z,2.30
2019-02-07T22:52:56.975Z,2.20
2019-02-07T22:55:25.892Z,2.20
2019-02-07T22:57:54.321Z,2.10
2019-02-07T23:01:27.372Z,2.10
2019-02-07T23:04:02.433Z,2.20
2019-02-07T23:06:32.631Z,2.10
2019-02-07T23:09:01.115Z,2.20
2019-02-07T23:11:29.814Z,2.20
2019-02-07T23:13:58.299Z,2.20
2019-02-07T23:16:27.602Z,2.20
2019-02-07T23:18:56.066Z,2.10
2019-02-07T23:21:24.448Z,2.00
2019-02-07T23:23:52.852Z,2.10
2019-02-07T23:26:21.468Z,2.10
2019-02-07T23:28:51.054Z,2.10
2019-02-07T23:31:19.581Z,2.20
2019-02-07T23:33:48.102Z,2.20
2019-02-07T23:36:16.488Z,2.20
2019-02-07T23:38:45.298Z,2.20
2019-02-07T23:41:13.807Z,2.10
2019-02-07T23:43:46.051Z,2.10
2019-02-07T23:46:12.607Z,2.10
2019-02-07T23:48:43.278Z,2.10
2019-02-07T23:51:11.771Z,2.10
2019-02-07T23:53:40.194Z,2.10
2019-02-07T23:56:08.795Z,2.00
2019-02-07T23:58:37.527Z,2.00
